sensor_id;sensor_type;location;lat;lon;timestamp;pressure;altitude;pressure_sealevel;temperature;humidity
62789;BME280;66401;42.016;21.454;2023-09-07T00:01:44;98467.66;;;21.54;56.26
62789;BME280;66401;42.016;21.454;2023-09-07T00:04:09;98462.34;;;21.54;56.19
62789;BME280;66401;42.016;21.454;2023-09-07T00:06:35;98470.78;;;21.51;56.15
62789;BME280;66401;42.016;21.454;2023-09-07T00:09:02;98466.53;;;21.50;56.80
62789;BME280;66401;42.016;21.454;2023-09-07T00:11:27;98462.31;;;21.49;56.89
62789;BME280;66401;42.016;21.454;2023-09-07T00:13:53;98467.59;;;21.49;57.08
62789;BME280;66401;42.016;21.454;2023-09-07T00:16:18;98457.00;;;21.49;56.19
62789;BME280;66401;42.016;21.454;2023-09-07T00:18:44;98456.19;;;21.43;56.76
62789;BME280;66401;42.016;21.454;2023-09-07T00:21:09;98454.88;;;21.46;56.55
62789;BME280;66401;42.016;21.454;2023-09-07T00:23:35;98452.50;;;21.49;56.67
62789;BME280;66401;42.016;21.454;2023-09-07T00:26:00;98459.66;;;21.49;56.17
62789;BME280;66401;42.016;21.454;2023-09-07T00:28:26;98448.47;;;21.41;56.42
62789;BME280;66401;42.016;21.454;2023-09-07T00:30:51;98456.47;;;21.47;56.57
62789;BME280;66401;42.016;21.454;2023-09-07T00:33:17;98452.22;;;21.46;56.83
62789;BME280;66401;42.016;21.454;2023-09-07T00:35:42;98454.34;;;21.43;56.82
62789;BME280;66401;42.016;21.454;2023-09-07T00:38:08;98461.19;;;21.39;56.83
62789;BME280;66401;42.016;21.454;2023-09-07T00:40:34;98452.97;;;21.41;57.12
62789;BME280;66401;42.016;21.454;2023-09-07T00:43:00;98454.56;;;21.42;57.16
62789;BME280;66401;42.016;21.454;2023-09-07T00:45:25;98456.41;;;21.36;56.95
62789;BME280;66401;42.016;21.454;2023-09-07T00:47:51;98460.13;;;21.40;57.23
62789;BME280;66401;42.016;21.454;2023-09-07T00:50:17;98451.63;;;21.33;56.73
62789;BME280;66401;42.016;21.454;2023-09-07T00:52:43;98462.78;;;21.40;57.58
62789;BME280;66401;42.016;21.454;2023-09-07T00:55:09;98452.19;;;21.35;57.24
62789;BME280;66401;42.016;21.454;2023-09-07T00:57:35;98448.22;;;21.38;57.26
62789;BME280;66401;42.016;21.454;2023-09-07T01:00:03;98446.09;;;21.40;56.55
62789;BME280;66401;42.016;21.454;2023-09-07T01:02:31;98449.00;;;21.33;56.98
62789;BME280;66401;42.016;21.454;2023-09-07T01:04:56;98448.44;;;21.31;56.91
62789;BME280;66401;42.016;21.454;2023-09-07T01:07:37;98452.66;;;21.27;56.87
62789;BME280;66401;42.016;21.454;2023-09-07T01:10:03;98453.72;;;21.26;57.34
62789;BME280;66401;42.016;21.454;2023-09-07T01:12:29;98463.84;;;21.34;58.38
62789;BME280;66401;42.016;21.454;2023-09-07T01:14:55;98460.66;;;21.37;57.55
62789;BME280;66401;42.016;21.454;2023-09-07T01:17:21;98461.19;;;21.39;57.97
62789;BME280;66401;42.016;21.454;2023-09-07T01:19:51;98461.19;;;21.39;57.67
62789;BME280;66401;42.016;21.454;2023-09-07T01:22:19;98453.22;;;21.34;58.47
62789;BME280;66401;42.016;21.454;2023-09-07T01:24:45;98457.22;;;21.37;57.50
62789;BME280;66401;42.016;21.454;2023-09-07T01:27:11;98465.16;;;21.37;58.04
62789;BME280;66401;42.016;21.454;2023-09-07T01:29:38;98444.13;;;21.25;57.80
62789;BME280;66401;42.016;21.454;2023-09-07T01:32:05;98443.66;;;21.28;57.46
62789;BME280;66401;42.016;21.454;2023-09-07T01:34:31;98443.66;;;21.28;57.64
62789;BME280;66401;42.016;21.454;2023-09-07T01:36:56;98448.94;;;21.28;57.64
62789;BME280;66401;42.016;21.454;2023-09-07T01:39:22;98457.94;;;21.27;57.54
62789;BME280;66401;42.016;21.454;2023-09-07T01:41:48;98463.75;;;21.24;57.72
62789;BME280;66401;42.016;21.454;2023-09-07T01:44:13;98460.03;;;21.25;57.51
62789;BME280;66401;42.016;21.454;2023-09-07T01:46:39;98459.72;;;21.22;58.17
62789;BME280;66401;42.016;21.454;2023-09-07T01:49:04;98459.72;;;21.22;57.78
62789;BME280;66401;42.016;21.454;2023-09-07T01:51:30;98465.34;;;21.25;57.94
62789;BME280;66401;42.016;21.454;2023-09-07T01:53:55;98465.91;;;21.32;57.13
62789;BME280;66401;42.016;21.454;2023-09-07T01:56:20;98474.66;;;21.28;57.78
62789;BME280;66401;42.016;21.454;2023-09-07T01:58:46;98456.22;;;21.11;57.53
62789;BME280;66401;42.016;21.454;2023-09-07T02:01:26;98475.94;;;21.25;58.12
62789;BME280;66401;42.016;21.454;2023-09-07T02:03:52;98478.03;;;21.23;58.01
62789;BME280;66401;42.016;21.454;2023-09-07T02:06:18;98487.81;;;21.23;57.64
62789;BME280;66401;42.016;21.454;2023-09-07T02:08:44;98478.84;;;21.24;57.73
62789;BME280;66401;42.016;21.454;2023-09-07T02:11:09;98482.84;;;21.26;57.56
62789;BME280;66401;42.016;21.454;2023-09-07T02:13:35;98482.28;;;21.24;58.06
62789;BME280;66401;42.016;21.454;2023-09-07T02:16:04;98475.09;;;21.20;57.64
62789;BME280;66401;42.016;21.454;2023-09-07T02:18:31;98481.72;;;21.22;57.37
62789;BME280;66401;42.016;21.454;2023-09-07T02:21:03;98474.56;;;21.23;57.28
62789;BME280;66401;42.016;21.454;2023-09-07T02:23:30;98475.94;;;21.25;57.09
62789;BME280;66401;42.016;21.454;2023-09-07T02:25:56;98472.25;;;21.26;57.10
62789;BME280;66401;42.016;21.454;2023-09-07T02:28:23;98483.34;;;21.23;57.18
62789;BME280;66401;42.016;21.454;2023-09-07T02:30:49;98479.38;;;21.26;57.10
62789;BME280;66401;42.016;21.454;2023-09-07T02:33:14;98480.69;;;21.23;56.77
62789;BME280;66401;42.016;21.454;2023-09-07T02:35:40;98483.34;;;21.23;56.99
62789;BME280;66401;42.016;21.454;2023-09-07T02:38:05;98481.72;;;21.22;57.32
62789;BME280;66401;42.016;21.454;2023-09-07T02:40:31;98478.53;;;21.20;57.07
62789;BME280;66401;42.016;21.454;2023-09-07T02:42:56;98490.22;;;21.24;56.77
62789;BME280;66401;42.016;21.454;2023-09-07T02:45:22;98491.81;;;21.25;57.28
62789;BME280;66401;42.016;21.454;2023-09-07T02:47:47;98457.00;;;21.06;56.87
62789;BME280;66401;42.016;21.454;2023-09-07T02:50:16;98482.28;;;21.24;57.76
62789;BME280;66401;42.016;21.454;2023-09-07T02:52:43;98483.38;;;21.28;58.05
62789;BME280;66401;42.016;21.454;2023-09-07T02:55:08;98483.38;;;21.28;57.87
62789;BME280;66401;42.016;21.454;2023-09-07T02:57:34;98475.94;;;21.25;58.34
62789;BME280;66401;42.016;21.454;2023-09-07T03:00:00;98487.63;;;21.29;57.98
62789;BME280;66401;42.016;21.454;2023-09-07T03:02:27;98484.97;;;21.29;57.85
62789;BME280;66401;42.016;21.454;2023-09-07T03:04:54;98486.03;;;21.28;57.56
62789;BME280;66401;42.016;21.454;2023-09-07T03:07:20;98496.63;;;21.28;57.74
62789;BME280;66401;42.016;21.454;2023-09-07T03:09:46;98491.25;;;21.18;57.81
62789;BME280;66401;42.016;21.454;2023-09-07T03:12:11;98503.97;;;21.21;58.46
62789;BME280;66401;42.016;21.454;2023-09-07T03:14:36;98502.88;;;21.17;59.55
62789;BME280;66401;42.016;21.454;2023-09-07T03:17:02;98501.25;;;21.11;60.08
62789;BME280;66401;42.016;21.454;2023-09-07T03:19:29;98508.13;;;21.12;60.36
62789;BME280;66401;42.016;21.454;2023-09-07T03:21:54;98503.41;;;21.14;60.62
62789;BME280;66401;42.016;21.454;2023-09-07T03:24:20;98506.53;;;21.11;61.40
62789;BME280;66401;42.016;21.454;2023-09-07T03:26:46;98508.06;;;21.02;62.34
62789;BME280;66401;42.016;21.454;2023-09-07T03:29:11;98510.97;;;21.00;62.26
62789;BME280;66401;42.016;21.454;2023-09-07T03:31:37;98514.66;;;20.94;64.07
62789;BME280;66401;42.016;21.454;2023-09-07T03:34:02;98475.78;;;20.68;64.55
62789;BME280;66401;42.016;21.454;2023-09-07T03:36:28;98506.75;;;20.72;66.76
62789;BME280;66401;42.016;21.454;2023-09-07T03:38:53;98508.09;;;20.75;66.41
62789;BME280;66401;42.016;21.454;2023-09-07T03:41:19;98517.66;;;20.76;67.27
62789;BME280;66401;42.016;21.454;2023-09-07T03:43:44;98519.50;;;20.75;67.83
62789;BME280;66401;42.016;21.454;2023-09-07T03:46:10;98489.16;;;20.56;67.96
62789;BME280;66401;42.016;21.454;2023-09-07T03:48:36;98513.09;;;20.71;68.73
62789;BME280;66401;42.016;21.454;2023-09-07T03:51:05;98522.16;;;20.75;68.84
62789;BME280;66401;42.016;21.454;2023-09-07T03:53:31;98512.59;;;20.74;67.40
62789;BME280;66401;42.016;21.454;2023-09-07T03:55:56;98524.25;;;20.73;67.13
62789;BME280;66401;42.016;21.454;2023-09-07T03:58:22;98534.56;;;20.75;67.81
62789;BME280;66401;42.016;21.454;2023-09-07T04:00:47;98528.19;;;20.71;68.64
62789;BME280;66401;42.016;21.454;2023-09-07T04:03:13;98520.50;;;20.69;68.46
62789;BME280;66401;42.016;21.454;2023-09-07T04:05:39;98532.75;;;20.75;69.49
62789;BME280;66401;42.016;21.454;2023-09-07T04:08:05;98530.03;;;20.70;70.20
62789;BME280;66401;42.016;21.454;2023-09-07T04:10:30;98544.88;;;20.71;69.64
62789;BME280;66401;42.016;21.454;2023-09-07T04:12:56;98536.38;;;20.69;71.08
62789;BME280;66401;42.016;21.454;2023-09-07T04:15:21;98542.19;;;20.66;69.19
62789;BME280;66401;42.016;21.454;2023-09-07T04:17:47;98547.97;;;20.63;68.40
62789;BME280;66401;42.016;21.454;2023-09-07T04:20:12;98553.75;;;20.60;68.01
62789;BME280;66401;42.016;21.454;2023-09-07T04:22:39;98534.38;;;20.33;69.88
62789;BME280;66401;42.016;21.454;2023-09-07T04:25:05;98547.75;;;20.21;70.73
62789;BME280;66401;42.016;21.454;2023-09-07T04:27:31;98541.91;;;20.19;70.00
62789;BME280;66401;42.016;21.454;2023-09-07T04:29:57;98539.63;;;20.27;69.81
62789;BME280;66401;42.016;21.454;2023-09-07T04:32:22;98543.91;;;20.34;69.79
62789;BME280;66401;42.016;21.454;2023-09-07T04:34:53;98540.97;;;20.30;70.21
62789;BME280;66401;42.016;21.454;2023-09-07T04:37:19;98551.31;;;20.32;70.24
62789;BME280;66401;42.016;21.454;2023-09-07T04:39:44;98544.97;;;20.33;69.77
62789;BME280;66401;42.016;21.454;2023-09-07T04:42:10;98556.09;;;20.35;70.24
62789;BME280;66401;42.016;21.454;2023-09-07T04:44:35;98558.81;;;20.40;70.94
62789;BME280;66401;42.016;21.454;2023-09-07T04:47:01;98567.63;;;20.45;70.95
62789;BME280;66401;42.016;21.454;2023-09-07T04:49:26;98570.44;;;20.39;72.06
62789;BME280;66401;42.016;21.454;2023-09-07T04:51:55;98560.47;;;20.46;71.95
62789;BME280;66401;42.016;21.454;2023-09-07T04:54:20;98558.34;;;20.43;72.08
62789;BME280;66401;42.016;21.454;2023-09-07T04:56:46;98560.97;;;20.43;72.51
62789;BME280;66401;42.016;21.454;2023-09-07T04:59:11;98550.31;;;20.38;73.04
62789;BME280;66401;42.016;21.454;2023-09-07T05:01:37;98556.72;;;20.42;72.55
62789;BME280;66401;42.016;21.454;2023-09-07T05:04:02;98556.41;;;20.38;72.46
62789;BME280;66401;42.016;21.454;2023-09-07T05:06:29;98558.19;;;20.33;72.43
62789;BME280;66401;42.016;21.454;2023-09-07T05:08:55;98565.16;;;20.39;73.98
62789;BME280;66401;42.016;21.454;2023-09-07T05:11:20;98575.22;;;20.42;74.30
62789;BME280;66401;42.016;21.454;2023-09-07T05:13:46;98566.81;;;20.45;73.57
62789;BME280;66401;42.016;21.454;2023-09-07T05:16:11;98571.56;;;20.43;73.21
62789;BME280;66401;42.016;21.454;2023-09-07T05:18:37;98578.66;;;20.42;73.91
62789;BME280;66401;42.016;21.454;2023-09-07T05:21:13;98534.72;;;20.14;74.00
62789;BME280;66401;42.016;21.454;2023-09-07T05:23:39;98569.91;;;20.37;73.01
62789;BME280;66401;42.016;21.454;2023-09-07T05:26:05;98580.63;;;20.47;73.80
62789;BME280;66401;42.016;21.454;2023-09-07T05:28:31;98562.00;;;20.42;73.00
62789;BME280;66401;42.016;21.454;2023-09-07T05:30:56;98573.78;;;20.51;73.74
62789;BME280;66401;42.016;21.454;2023-09-07T05:33:22;98579.13;;;20.56;74.11
62789;BME280;66401;42.016;21.454;2023-09-07T05:35:47;98586.56;;;20.59;73.61
62789;BME280;66401;42.016;21.454;2023-09-07T05:38:13;98585.25;;;20.62;73.88
62789;BME280;66401;42.016;21.454;2023-09-07T05:40:40;98579.47;;;20.65;72.86
62789;BME280;66401;42.016;21.454;2023-09-07T05:43:06;98588.81;;;20.72;72.30
62789;BME280;66401;42.016;21.454;2023-09-07T05:45:35;98591.00;;;20.80;71.73
62789;BME280;66401;42.016;21.454;2023-09-07T05:48:05;98580.94;;;20.77;71.12
62789;BME280;66401;42.016;21.454;2023-09-07T05:50:33;98593.75;;;20.91;73.00
62789;BME280;66401;42.016;21.454;2023-09-07T05:52:58;98597.53;;;20.95;73.72
62789;BME280;66401;42.016;21.454;2023-09-07T05:55:24;98598.09;;;21.02;73.42
62789;BME280;66401;42.016;21.454;2023-09-07T05:57:49;98586.44;;;21.03;72.11
62789;BME280;66401;42.016;21.454;2023-09-07T06:00:15;98597.66;;;21.10;70.58
62789;BME280;66401;42.016;21.454;2023-09-07T06:02:43;98598.44;;;21.10;71.37
62789;BME280;66401;42.016;21.454;2023-09-07T06:05:08;98601.69;;;21.18;71.78
62789;BME280;66401;42.016;21.454;2023-09-07T06:07:35;98610.50;;;21.23;70.50
62789;BME280;66401;42.016;21.454;2023-09-07T06:10:01;98595.72;;;21.27;68.59
62789;BME280;66401;42.016;21.454;2023-09-07T06:12:26;98605.59;;;21.10;68.89
62789;BME280;66401;42.016;21.454;2023-09-07T06:14:52;98610.78;;;21.00;69.59
62789;BME280;66401;42.016;21.454;2023-09-07T06:17:17;98616.09;;;21.00;70.39
62789;BME280;66401;42.016;21.454;2023-09-07T06:19:44;98612.91;;;20.98;69.33
62789;BME280;66401;42.016;21.454;2023-09-07T06:22:09;98611.19;;;21.13;67.24
62789;BME280;66401;42.016;21.454;2023-09-07T06:24:35;98620.03;;;21.24;66.02
62789;BME280;66401;42.016;21.454;2023-09-07T06:27:00;98605.50;;;21.27;66.51
62789;BME280;66401;42.016;21.454;2023-09-07T06:29:26;98628.19;;;21.45;65.54
62789;BME280;66401;42.016;21.454;2023-09-07T06:31:51;98618.72;;;21.59;65.59
62789;BME280;66401;42.016;21.454;2023-09-07T06:34:17;98618.84;;;21.74;65.23
62789;BME280;66401;42.016;21.454;2023-09-07T06:36:43;98625.28;;;21.88;65.55
62789;BME280;66401;42.016;21.454;2023-09-07T06:39:08;98628.56;;;22.00;64.20
62789;BME280;66401;42.016;21.454;2023-09-07T06:41:34;98629.97;;;22.13;63.94
62789;BME280;66401;42.016;21.454;2023-09-07T06:44:00;98629.50;;;22.21;63.77
62789;BME280;66401;42.016;21.454;2023-09-07T06:46:25;98625.59;;;22.39;64.15
62789;BME280;66401;42.016;21.454;2023-09-07T06:48:50;98623.47;;;22.46;63.43
62789;BME280;66401;42.016;21.454;2023-09-07T06:51:16;98625.09;;;22.57;62.38
62789;BME280;66401;42.016;21.454;2023-09-07T06:53:42;98633.66;;;22.70;62.30
62789;BME280;66401;42.016;21.454;2023-09-07T06:56:07;98633.13;;;22.73;62.68
62789;BME280;66401;42.016;21.454;2023-09-07T06:58:33;98620.94;;;22.82;61.92
62789;BME280;66401;42.016;21.454;2023-09-07T07:01:00;98630.56;;;22.88;64.83
62789;BME280;66401;42.016;21.454;2023-09-07T07:03:29;98630.59;;;23.08;61.07
62789;BME280;66401;42.016;21.454;2023-09-07T07:05:56;98624.75;;;23.17;62.36
62789;BME280;66401;42.016;21.454;2023-09-07T07:08:22;98627.41;;;23.47;60.35
62789;BME280;66401;42.016;21.454;2023-09-07T07:10:48;98619.41;;;23.83;58.45
62789;BME280;66401;42.016;21.454;2023-09-07T07:13:14;98624.72;;;23.83;58.84
62789;BME280;66401;42.016;21.454;2023-09-07T07:15:39;98623.59;;;24.14;57.89
62789;BME280;66401;42.016;21.454;2023-09-07T07:18:05;98623.38;;;23.90;56.38
62789;BME280;66401;42.016;21.454;2023-09-07T07:20:41;98621.50;;;24.01;56.88
62789;BME280;66401;42.016;21.454;2023-09-07T07:23:06;98618.56;;;24.03;56.00
62789;BME280;66401;42.016;21.454;2023-09-07T07:25:32;98624.13;;;24.16;55.62
62789;BME280;66401;42.016;21.454;2023-09-07T07:28:02;98625.13;;;24.31;55.18
62789;BME280;66401;42.016;21.454;2023-09-07T07:30:34;98620.34;;;24.38;54.90
62789;BME280;66401;42.016;21.454;2023-09-07T07:33:00;98621.34;;;24.52;53.19
62789;BME280;66401;42.016;21.454;2023-09-07T07:35:26;98616.78;;;24.58;52.28
62789;BME280;66401;42.016;21.454;2023-09-07T07:37:52;98611.56;;;24.42;53.74
62789;BME280;66401;42.016;21.454;2023-09-07T07:40:18;98611.50;;;24.52;53.15
62789;BME280;66401;42.016;21.454;2023-09-07T07:42:44;98616.88;;;24.42;52.49
62789;BME280;66401;42.016;21.454;2023-09-07T07:45:11;98620.88;;;24.30;53.39
62789;BME280;66401;42.016;21.454;2023-09-07T07:47:38;98603.81;;;24.31;53.42
62789;BME280;66401;42.016;21.454;2023-09-07T07:50:04;98598.00;;;24.34;53.17
62789;BME280;66401;42.016;21.454;2023-09-07T07:52:29;98609.94;;;24.41;53.06
62789;BME280;66401;42.016;21.454;2023-09-07T07:54:55;98604.88;;;24.45;52.30
62789;BME280;66401;42.016;21.454;2023-09-07T07:57:20;98602.78;;;24.21;53.66
62789;BME280;66401;42.016;21.454;2023-09-07T07:59:46;98605.72;;;24.35;55.14
62789;BME280;66401;42.016;21.454;2023-09-07T08:02:12;98607.84;;;24.33;53.71
62789;BME280;66401;42.016;21.454;2023-09-07T08:04:37;98610.75;;;24.42;53.11
62789;BME280;66401;42.016;21.454;2023-09-07T08:07:03;98609.69;;;24.43;53.21
62789;BME280;66401;42.016;21.454;2023-09-07T08:09:31;98608.06;;;24.47;53.66
62789;BME280;66401;42.016;21.454;2023-09-07T08:11:57;98603.00;;;24.40;53.15
62789;BME280;66401;42.016;21.454;2023-09-07T08:14:24;98607.53;;;24.40;52.09
62789;BME280;66401;42.016;21.454;2023-09-07T08:16:49;98609.13;;;24.46;54.05
62789;BME280;66401;42.016;21.454;2023-09-07T08:19:15;98610.94;;;24.50;52.05
62789;BME280;66401;42.016;21.454;2023-09-07T08:21:41;98609.06;;;24.61;52.74
62789;BME280;66401;42.016;21.454;2023-09-07T08:24:08;98606.34;;;24.66;51.28
62789;BME280;66401;42.016;21.454;2023-09-07T08:26:35;98580.22;;;24.73;52.32
62789;BME280;66401;42.016;21.454;2023-09-07T08:29:01;98601.09;;;25.34;51.81
62789;BME280;66401;42.016;21.454;2023-09-07T08:31:31;98604.00;;;25.67;51.35
62789;BME280;66401;42.016;21.454;2023-09-07T08:34:04;98581.13;;;25.90;48.44
62789;BME280;66401;42.016;21.454;2023-09-07T08:36:30;98600.88;;;26.13;49.61
62789;BME280;66401;42.016;21.454;2023-09-07T08:39:01;98598.75;;;25.57;49.45
62789;BME280;66401;42.016;21.454;2023-09-07T08:41:40;98593.31;;;25.72;47.53
62789;BME280;66401;42.016;21.454;2023-09-07T08:44:28;98584.97;;;26.03;49.97
62789;BME280;66401;42.016;21.454;2023-09-07T08:46:55;98578.91;;;26.21;48.53
62789;BME280;66401;42.016;21.454;2023-09-07T08:49:20;98578.63;;;26.46;47.10
62789;BME280;66401;42.016;21.454;2023-09-07T08:51:48;98584.44;;;26.06;47.53
62789;BME280;66401;42.016;21.454;2023-09-07T08:54:14;98587.19;;;26.43;47.11
62789;BME280;66401;42.016;21.454;2023-09-07T08:56:40;98579.31;;;26.71;48.74
62789;BME280;66401;42.016;21.454;2023-09-07T08:59:06;98588.38;;;26.94;45.56
62789;BME280;66401;42.016;21.454;2023-09-07T09:01:31;98584.66;;;27.08;46.32
62789;BME280;66401;42.016;21.454;2023-09-07T09:03:58;98588.06;;;27.14;46.74
62789;BME280;66401;42.016;21.454;2023-09-07T09:06:24;98576.94;;;27.39;46.27
62789;BME280;66401;42.016;21.454;2023-09-07T09:08:52;98572.50;;;27.49;45.02
62789;BME280;66401;42.016;21.454;2023-09-07T09:11:18;98576.69;;;27.55;45.58
62789;BME280;66401;42.016;21.454;2023-09-07T09:13:45;98572.44;;;27.67;45.80
62789;BME280;66401;42.016;21.454;2023-09-07T09:16:11;98572.56;;;27.76;44.89
62789;BME280;66401;42.016;21.454;2023-09-07T09:18:38;98573.34;;;27.77;43.04
62789;BME280;66401;42.016;21.454;2023-09-07T09:21:04;98568.41;;;27.84;44.13
62789;BME280;66401;42.016;21.454;2023-09-07T09:23:35;98564.03;;;28.15;42.74
62789;BME280;66401;42.016;21.454;2023-09-07T09:26:01;98566.00;;;28.37;43.89
62789;BME280;66401;42.016;21.454;2023-09-07T09:28:30;98555.78;;;28.26;42.77
62789;BME280;66401;42.016;21.454;2023-09-07T09:30:58;98556.47;;;28.17;43.60
62789;BME280;66401;42.016;21.454;2023-09-07T09:33:25;98556.53;;;27.90;42.13
62789;BME280;66401;42.016;21.454;2023-09-07T09:35:52;98552.34;;;27.84;42.90
62789;BME280;66401;42.016;21.454;2023-09-07T09:38:19;98558.78;;;28.10;43.72
62789;BME280;66401;42.016;21.454;2023-09-07T09:40:44;98552.22;;;28.16;42.83
62789;BME280;66401;42.016;21.454;2023-09-07T09:43:11;98548.94;;;28.33;41.71
62789;BME280;66401;42.016;21.454;2023-09-07T09:45:37;98549.19;;;28.09;43.12
62789;BME280;66401;42.016;21.454;2023-09-07T09:48:05;98541.84;;;28.29;42.06
62789;BME280;66401;42.016;21.454;2023-09-07T09:50:31;98535.81;;;28.45;41.50
62789;BME280;66401;42.016;21.454;2023-09-07T09:52:57;98545.03;;;28.75;41.25
62789;BME280;66401;42.016;21.454;2023-09-07T09:55:23;98538.78;;;28.58;41.36
62789;BME280;66401;42.016;21.454;2023-09-07T09:57:50;98534.59;;;27.60;41.96
62789;BME280;66401;42.016;21.454;2023-09-07T10:00:16;98546.38;;;28.14;43.13
62789;BME280;66401;42.016;21.454;2023-09-07T10:03:13;98532.84;;;28.47;41.31
62789;BME280;66401;42.016;21.454;2023-09-07T10:05:40;98543.34;;;28.57;40.89
62789;BME280;66401;42.016;21.454;2023-09-07T10:08:14;98533.81;;;28.87;41.91
62789;BME280;66401;42.016;21.454;2023-09-07T10:10:42;98527.88;;;29.21;43.95
62789;BME280;66401;42.016;21.454;2023-09-07T10:13:08;98530.03;;;29.11;39.28
62789;BME280;66401;42.016;21.454;2023-09-07T10:15:33;98527.44;;;28.97;39.71
62789;BME280;66401;42.016;21.454;2023-09-07T10:18:14;98536.56;;;29.18;39.79
62789;BME280;66401;42.016;21.454;2023-09-07T10:20:52;98522.72;;;29.56;39.19
62789;BME280;66401;42.016;21.454;2023-09-07T10:23:19;98522.66;;;29.16;38.46
62789;BME280;66401;42.016;21.454;2023-09-07T10:25:52;98521.13;;;29.55;39.49
62789;BME280;66401;42.016;21.454;2023-09-07T10:28:25;98516.94;;;29.40;39.27
62789;BME280;66401;42.016;21.454;2023-09-07T10:31:09;98515.63;;;31.03;37.95
62789;BME280;66401;42.016;21.454;2023-09-07T10:33:38;98519.25;;;31.25;35.65
62789;BME280;66401;42.016;21.454;2023-09-07T10:36:04;98507.16;;;31.48;35.38
62789;BME280;66401;42.016;21.454;2023-09-07T10:38:34;98519.03;;;31.47;35.06
62789;BME280;66401;42.016;21.454;2023-09-07T10:41:02;98515.81;;;31.92;34.06
62789;BME280;66401;42.016;21.454;2023-09-07T10:43:32;98512.81;;;30.48;35.70
62789;BME280;66401;42.016;21.454;2023-09-07T10:45:59;98511.41;;;30.85;35.94
62789;BME280;66401;42.016;21.454;2023-09-07T10:48:28;98509.56;;;31.32;35.62
62789;BME280;66401;42.016;21.454;2023-09-07T10:50:54;98506.91;;;31.62;36.04
62789;BME280;66401;42.016;21.454;2023-09-07T10:53:30;98499.13;;;31.78;35.40
62789;BME280;66401;42.016;21.454;2023-09-07T10:56:02;98499.47;;;31.97;34.45
62789;BME280;66401;42.016;21.454;2023-09-07T10:58:33;98502.25;;;31.80;36.41
62789;BME280;66401;42.016;21.454;2023-09-07T11:01:00;98502.50;;;31.11;35.65
62789;BME280;66401;42.016;21.454;2023-09-07T11:03:27;98504.09;;;30.94;36.13
62789;BME280;66401;42.016;21.454;2023-09-07T11:06:16;98500.81;;;30.89;36.42
62789;BME280;66401;42.016;21.454;2023-09-07T11:08:46;98507.56;;;31.03;36.19
62789;BME280;66401;42.016;21.454;2023-09-07T11:11:12;98493.69;;;30.84;37.28
62789;BME280;66401;42.016;21.454;2023-09-07T11:13:38;98495.91;;;30.56;36.49
62789;BME280;66401;42.016;21.454;2023-09-07T11:16:07;98501.44;;;30.86;37.66
62789;BME280;66401;42.016;21.454;2023-09-07T11:18:33;98496.69;;;30.91;39.53
62789;BME280;66401;42.016;21.454;2023-09-07T11:20:59;98500.63;;;31.02;36.77
62789;BME280;66401;42.016;21.454;2023-09-07T11:23:29;98493.56;;;31.36;37.21
62789;BME280;66401;42.016;21.454;2023-09-07T11:25:56;98489.00;;;31.66;35.64
62789;BME280;66401;42.016;21.454;2023-09-07T11:28:23;98491.16;;;31.43;35.49
62789;BME280;66401;42.016;21.454;2023-09-07T11:30:55;98492.59;;;30.68;36.42
62789;BME280;66401;42.016;21.454;2023-09-07T11:33:21;98481.28;;;29.88;35.81
62789;BME280;66401;42.016;21.454;2023-09-07T11:35:47;98476.94;;;30.27;34.51
62789;BME280;66401;42.016;21.454;2023-09-07T11:38:15;98475.34;;;30.60;34.98
62789;BME280;66401;42.016;21.454;2023-09-07T11:40:41;98481.97;;;30.28;35.14
62789;BME280;66401;42.016;21.454;2023-09-07T11:43:17;98471.19;;;29.45;36.94
62789;BME280;66401;42.016;21.454;2023-09-07T11:45:46;98474.53;;;29.51;36.15
62789;BME280;66401;42.016;21.454;2023-09-07T11:48:12;98479.53;;;29.35;36.54
62789;BME280;66401;42.016;21.454;2023-09-07T11:50:38;98470.41;;;29.45;37.04
62789;BME280;66401;42.016;21.454;2023-09-07T11:53:05;98466.34;;;28.94;37.40
62789;BME280;66401;42.016;21.454;2023-09-07T11:55:32;98470.44;;;28.69;37.30
62789;BME280;66401;42.016;21.454;2023-09-07T11:57:57;98468.13;;;28.54;38.23
62789;BME280;66401;42.016;21.454;2023-09-07T12:00:23;98461.72;;;28.63;37.01
62789;BME280;66401;42.016;21.454;2023-09-07T12:02:49;98457.41;;;28.54;37.82
62789;BME280;66401;42.016;21.454;2023-09-07T12:05:15;98452.47;;;28.47;37.46
62789;BME280;66401;42.016;21.454;2023-09-07T12:07:41;98459.28;;;28.31;39.27
62789;BME280;66401;42.016;21.454;2023-09-07T12:10:10;98416.19;;;28.27;38.89
62789;BME280;66401;42.016;21.454;2023-09-07T12:12:37;98453.94;;;28.17;40.40
62789;BME280;66401;42.016;21.454;2023-09-07T12:15:03;98456.69;;;28.26;38.65
62789;BME280;66401;42.016;21.454;2023-09-07T12:17:30;98452.59;;;28.42;38.17
62789;BME280;66401;42.016;21.454;2023-09-07T12:19:56;98450.84;;;28.60;39.01
62789;BME280;66401;42.016;21.454;2023-09-07T12:22:21;98452.25;;;28.57;38.46
62789;BME280;66401;42.016;21.454;2023-09-07T12:24:47;98452.66;;;28.50;37.58
62789;BME280;66401;42.016;21.454;2023-09-07T12:27:13;98453.69;;;28.86;37.59
62789;BME280;66401;42.016;21.454;2023-09-07T12:29:39;98453.00;;;28.80;38.39
62789;BME280;66401;42.016;21.454;2023-09-07T12:32:05;98440.22;;;28.32;37.16
62789;BME280;66401;42.016;21.454;2023-09-07T12:34:30;98450.34;;;28.58;38.99
62789;BME280;66401;42.016;21.454;2023-09-07T12:36:56;98433.34;;;28.62;37.31
62789;BME280;66401;42.016;21.454;2023-09-07T12:39:21;98438.59;;;28.45;38.24
62789;BME280;66401;42.016;21.454;2023-09-07T12:41:46;98440.91;;;28.60;38.40
62789;BME280;66401;42.016;21.454;2023-09-07T12:44:12;98440.94;;;28.46;38.42
62789;BME280;66401;42.016;21.454;2023-09-07T12:46:38;98434.75;;;28.60;38.90
62789;BME280;66401;42.016;21.454;2023-09-07T12:49:03;98439.19;;;28.42;39.64